Cuiabá, Brasil

09:09 AM AMT em 07 de Julho de 2015 (GMT -0400)
Marechal Rondon International | | Change Station
CLOSE
Current Station
Aeroporto
Location: Cuiaba Marechal Ron,
Altitude: 617 ft
Estações Meteorológicas Próximas

Elev 617 ft 15.65 °S, 56.12 °W | Updated 9 minutes ago

Mostly Cloudy
Muito Nublado
72 °F
Aparente 72 °F
N
7
Vento Variável Vento de NNO

Hoje
Máxima -- | Mínima -- °F
--% Possibilidade de Precip.
Ontem
Máxima -- | Mínima -- °F
Precip. -- pol
6:12 AM 5:26 PM
Lua minguante, 65% visible
Pressão 29.98 pol
Visibilidade 6.2 milhas
Nuvens Muito Nublado 800 ft
Muito Nublado 10000 ft
Ponto de Orvalho 68 °F
Humidade 88%
Chuva 0.00 pol
Altura de Neve Não disponível
UV 2 em vez de 12
Pólen Não disponível
Qualidade do Ar Não disponível
Flu Activity Não disponível
METAR SBCY 071300Z 33006KT 9999 BKN008 BKN100 22/20 Q1015

More Conditions Fewer Conditions

Pressão 29.98 pol
Visibilidade 6.2 milhas
Nuvens Muito Nublado 800 ft
Muito Nublado 10000 ft
Ponto de Orvalho 68 °F
Humidade 88%
Chuva 0.00 pol
Altura de Neve Não disponível
UV 2 em vez de 12
Pólen Não disponível
Qualidade do Ar Não disponível
Flu Activity Não disponível
METAR SBCY 071300Z 33006KT 9999 BKN008 BKN100 22/20 Q1015

More Conditions Fewer Conditions

10-Day Weather Forecast

×

Almanac

Astronomia

Jul. 07, 2015 Nascer Pôr
Hora atual
Crepúsculo civil
Crepúsculo náutico
Crepúsculo astronómico
Lua
Comprimento da luz visível
Duração do Dia
Tomorrow will be .
, % of the Moon is Illuminated

Extremos de Hoje

Altitude na localidade Altura mais baixa na localidade

Community

WunderPhotos

Upload Photos

1,835,787 fotografias inseridas!

WunderBlogs® & News

Nearby

Qualidade do Ar

  Qualidade do Ar Índice da Q.A. Poluente
Not available.

Altura da Neve

Estação altura Altitude

Actividade Sísmisca

Cidade Distância Mag. Hora & Data
Mínima magnitude apresentada é 2.5.

Temperaturas das Águas Costeiras

Local Temperatura

Stations

Estações Meteorológicas Próximas

Localização da Estação Temp. Sensação Térmica Ponto de Orvalho Humidade Vento Precip. Elev Actualizado Tipo